Hobbs, New Mexico
Current Conditions -  °F | °C
As of 8:15 PM on Tuesday 25 Nov 2014 (Local Time) from KHOB Reporting Station
Clear Clear  
Wind Chill: 33°   Ceiling: Unl
Heat Index: 39°   Visibility: 10mi
Dew Point: 10°   Wind: 9mph
Humidity: 31%   Direction: 240°WSW
Pressure: 30.13"   Gusts: NA
Location:  32.7°N, 103.12°W
Report Text: KHOB 260315Z AUTO 24008KT 10SM CLR 04/M12 A3013 RMK AO2
Loading
Personal Weather Stations






























Interactive Weather Map New forecast layout! Learn more

10-Day Weather Forecast

Advertisements
Track Severe Weather on mobile